ENKR Airport Information

Runway Information
Runway 05 Length 6939 ft width 148 ft Elevation 281 ft Threshold 185 ft Heading 69
Runway 23 Length 6939 ft Width 148 ft Elevation 280 ft Threshold 1450 ft Heading 249
Airport Frequencies
Type ATIS Name ATIS Frequency 118.025 MHZ
Type TWR Name KIRKENES T Frequency 118.1 MHZ
Airport Navaids
Type VOR-DME Name Kirkenes Frequency 112000 KHZ
Type NDB Name Kirkenes Frequency 326 KHZ
Airport Weather Information & NOTAM
ADDS - METARS form results

(1748 UTC 01 December 2022)
Data provider http://aviationweather.gov/metar/data/
 
METAR text: ENKR 011720Z 16004KT 130V190 9999 BKN019 M05/M06 Q1037 RMK WIND 731FT 20004KT
Conditions at: ENKR (KIRKENES (CIV/MI, NO) observed 1720 UTC 01 December 2022
Temperature: -5.0°C (23°F)
Dewpoint: -6.0°C (21°F) [RH = 93%]
Pressure (altimeter): 30.62 inches Hg (1037.0 mb)
Winds: from the SSE (160 degrees) at 5 MPH (4 knots; 2.1 m/s)
Visibility: 6 or more miles (10+ km)
Ceiling: 1900 feet AGL
Clouds: broken clouds at 1900 feet AGL
Weather: no significant weather observed at this time

METAR text: ENKR 011650Z 17006KT 9999 BKN020 M05/M06 Q1037 RMK WIND 731FT 20003KT
Conditions at: ENKR (KIRKENES (CIV/MI, NO) observed 1650 UTC 01 December 2022
Temperature: -5.0°C (23°F)
Dewpoint: -6.0°C (21°F) [RH = 93%]
Pressure (altimeter): 30.62 inches Hg (1037.0 mb)
Winds: from the S (170 degrees) at 7 MPH (6 knots; 3.1 m/s)
Visibility: 6 or more miles (10+ km)
Ceiling: 2000 feet AGL
Clouds: broken clouds at 2000 feet AGL
Weather: no significant weather observed at this time

Forecast for: ENKR (KIRKENES (CIV/MI, NO)
Text: TAF ENKR 011700Z 0118/0203 19008KT 9999 FEW008 BKN020
Forecast period: 1800 UTC 01 December 2022 to 0300 UTC 02 December 2022
Forecast type: FROM: standard forecast or significant change
Winds: from the S (190 degrees) at 9 MPH (8 knots; 4.1 m/s)
Visibility: 6 or more miles (10+ km)
Ceiling: 2000 feet AGL
Clouds: few clouds at 800 feet AGL
broken clouds at 2000 feet AGL
Weather: no significant weather forecast for this period
Text: PROB40
Forecast period: 1800 UTC 01 December 2022 to 0300 UTC 02 December 2022
Forecast type: TEMPORARY: The following changes expected for less than half the time period
Visibility: missing
Ceiling: 800 feet AGL
Clouds: broken clouds at 800 feet AGL
Weather: no significant weather forecast for this period